sensor_id;sensor_type;location;lat;lon;timestamp;P1;durP1;ratioP1;P2;durP2;ratioP2
23517;SDS011;11935;50.878;4.392;2022-10-31T00:00:43;13.38;;;7.47;;
23517;SDS011;11935;50.878;4.392;2022-10-31T00:03:09;13.77;;;6.90;;
23517;SDS011;11935;50.878;4.392;2022-10-31T00:05:35;12.00;;;6.57;;
23517;SDS011;11935;50.878;4.392;2022-10-31T00:08:01;12.93;;;5.68;;
23517;SDS011;11935;50.878;4.392;2022-10-31T00:10:27;11.90;;;6.60;;
23517;SDS011;11935;50.878;4.392;2022-10-31T00:12:53;19.75;;;6.82;;
23517;SDS011;11935;50.878;4.392;2022-10-31T00:15:19;12.73;;;7.10;;
23517;SDS011;11935;50.878;4.392;2022-10-31T00:17:45;14.93;;;7.75;;
23517;SDS011;11935;50.878;4.392;2022-10-31T00:20:11;16.20;;;7.68;;
23517;SDS011;11935;50.878;4.392;2022-10-31T00:22:37;14.45;;;7.88;;
23517;SDS011;11935;50.878;4.392;2022-10-31T00:25:03;15.45;;;7.95;;
23517;SDS011;11935;50.878;4.392;2022-10-31T00:27:29;13.13;;;8.15;;
23517;SDS011;11935;50.878;4.392;2022-10-31T00:29:55;16.75;;;8.88;;
23517;SDS011;11935;50.878;4.392;2022-10-31T00:32:21;14.88;;;8.55;;
23517;SDS011;11935;50.878;4.392;2022-10-31T00:34:47;14.88;;;8.40;;
23517;SDS011;11935;50.878;4.392;2022-10-31T00:37:13;20.85;;;8.13;;
23517;SDS011;11935;50.878;4.392;2022-10-31T00:39:39;16.58;;;8.40;;
23517;SDS011;11935;50.878;4.392;2022-10-31T00:42:05;16.15;;;8.23;;
23517;SDS011;11935;50.878;4.392;2022-10-31T00:44:31;15.00;;;8.23;;
23517;SDS011;11935;50.878;4.392;2022-10-31T00:46:57;19.35;;;9.85;;
23517;SDS011;11935;50.878;4.392;2022-10-31T00:49:23;17.83;;;8.77;;
23517;SDS011;11935;50.878;4.392;2022-10-31T00:51:49;16.27;;;8.68;;
23517;SDS011;11935;50.878;4.392;2022-10-31T00:54:15;17.52;;;9.80;;
23517;SDS011;11935;50.878;4.392;2022-10-31T00:56:41;13.73;;;8.32;;
23517;SDS011;11935;50.878;4.392;2022-10-31T00:59:07;16.08;;;9.15;;
23517;SDS011;11935;50.878;4.392;2022-10-31T01:01:33;13.63;;;8.95;;
23517;SDS011;11935;50.878;4.392;2022-10-31T01:03:59;19.33;;;9.43;;
23517;SDS011;11935;50.878;4.392;2022-10-31T01:06:25;16.95;;;9.27;;
23517;SDS011;11935;50.878;4.392;2022-10-31T01:08:51;13.38;;;8.25;;
23517;SDS011;11935;50.878;4.392;2022-10-31T01:11:22;17.15;;;8.73;;
23517;SDS011;11935;50.878;4.392;2022-10-31T01:13:52;12.73;;;7.40;;
23517;SDS011;11935;50.878;4.392;2022-10-31T01:16:19;14.38;;;8.40;;
23517;SDS011;11935;50.878;4.392;2022-10-31T01:18:46;17.08;;;7.75;;
23517;SDS011;11935;50.878;4.392;2022-10-31T01:21:16;12.70;;;7.40;;
23517;SDS011;11935;50.878;4.392;2022-10-31T01:23:43;15.50;;;8.63;;
23517;SDS011;11935;50.878;4.392;2022-10-31T01:26:10;16.92;;;8.05;;
23517;SDS011;11935;50.878;4.392;2022-10-31T01:28:37;14.85;;;7.80;;
23517;SDS011;11935;50.878;4.392;2022-10-31T01:31:04;16.48;;;7.32;;
23517;SDS011;11935;50.878;4.392;2022-10-31T01:33:31;13.33;;;7.37;;
23517;SDS011;11935;50.878;4.392;2022-10-31T01:35:57;12.20;;;6.63;;
23517;SDS011;11935;50.878;4.392;2022-10-31T01:38:23;10.88;;;6.07;;
23517;SDS011;11935;50.878;4.392;2022-10-31T01:40:49;11.63;;;6.38;;
23517;SDS011;11935;50.878;4.392;2022-10-31T01:43:15;10.27;;;6.30;;
23517;SDS011;11935;50.878;4.392;2022-10-31T01:45:41;14.27;;;6.72;;
23517;SDS011;11935;50.878;4.392;2022-10-31T01:48:13;13.88;;;6.63;;
23517;SDS011;11935;50.878;4.392;2022-10-31T01:50:41;14.13;;;6.05;;
23517;SDS011;11935;50.878;4.392;2022-10-31T01:53:09;11.38;;;6.65;;
23517;SDS011;11935;50.878;4.392;2022-10-31T01:55:38;11.23;;;6.43;;
23517;SDS011;11935;50.878;4.392;2022-10-31T01:58:07;16.98;;;6.07;;
23517;SDS011;11935;50.878;4.392;2022-10-31T02:00:35;7.90;;;5.97;;
23517;SDS011;11935;50.878;4.392;2022-10-31T02:03:01;9.73;;;5.93;;
23517;SDS011;11935;50.878;4.392;2022-10-31T02:05:28;9.95;;;6.32;;
23517;SDS011;11935;50.878;4.392;2022-10-31T02:10:23;11.77;;;6.38;;
23517;SDS011;11935;50.878;4.392;2022-10-31T02:12:51;12.25;;;6.03;;
23517;SDS011;11935;50.878;4.392;2022-10-31T02:15:17;11.07;;;6.07;;
23517;SDS011;11935;50.878;4.392;2022-10-31T02:17:43;17.33;;;6.47;;
23517;SDS011;11935;50.878;4.392;2022-10-31T02:27:41;9.40;;;5.55;;
23517;SDS011;11935;50.878;4.392;2022-10-31T02:30:20;10.45;;;6.28;;
23517;SDS011;11935;50.878;4.392;2022-10-31T02:35:37;11.07;;;5.68;;
23517;SDS011;11935;50.878;4.392;2022-10-31T02:38:09;12.00;;;6.15;;
23517;SDS011;11935;50.878;4.392;2022-10-31T02:40:38;12.48;;;6.65;;
23517;SDS011;11935;50.878;4.392;2022-10-31T02:48:14;11.38;;;6.03;;
23517;SDS011;11935;50.878;4.392;2022-10-31T02:50:41;9.18;;;6.30;;
23517;SDS011;11935;50.878;4.392;2022-10-31T02:53:09;16.80;;;6.20;;
23517;SDS011;11935;50.878;4.392;2022-10-31T02:58:02;12.48;;;6.57;;
23517;SDS011;11935;50.878;4.392;2022-10-31T03:00:31;10.30;;;6.55;;
23517;SDS011;11935;50.878;4.392;2022-10-31T03:03:03;14.98;;;6.38;;
23517;SDS011;11935;50.878;4.392;2022-10-31T03:10:31;12.65;;;7.53;;
23517;SDS011;11935;50.878;4.392;2022-10-31T03:15:43;14.70;;;7.55;;
23517;SDS011;11935;50.878;4.392;2022-10-31T03:20:43;14.98;;;7.45;;
23517;SDS011;11935;50.878;4.392;2022-10-31T03:23:12;15.15;;;6.82;;
23517;SDS011;11935;50.878;4.392;2022-10-31T03:25:39;13.55;;;6.97;;
23517;SDS011;11935;50.878;4.392;2022-10-31T03:28:06;11.93;;;7.38;;
23517;SDS011;11935;50.878;4.392;2022-10-31T03:30:35;12.73;;;7.10;;
23517;SDS011;11935;50.878;4.392;2022-10-31T03:35:33;14.85;;;6.93;;
23517;SDS011;11935;50.878;4.392;2022-10-31T03:38:01;12.93;;;7.10;;
23517;SDS011;11935;50.878;4.392;2022-10-31T03:40:27;11.68;;;6.90;;
23517;SDS011;11935;50.878;4.392;2022-10-31T03:42:58;13.98;;;7.15;;
23517;SDS011;11935;50.878;4.392;2022-10-31T03:45:27;15.30;;;7.10;;
23517;SDS011;11935;50.878;4.392;2022-10-31T03:47:54;14.27;;;8.15;;
23517;SDS011;11935;50.878;4.392;2022-10-31T03:50:21;19.25;;;7.35;;
23517;SDS011;11935;50.878;4.392;2022-10-31T03:53:01;19.52;;;7.03;;
23517;SDS011;11935;50.878;4.392;2022-10-31T03:55:40;17.60;;;7.63;;
23517;SDS011;11935;50.878;4.392;2022-10-31T03:58:07;11.70;;;6.88;;
23517;SDS011;11935;50.878;4.392;2022-10-31T04:00:34;14.32;;;7.55;;
23517;SDS011;11935;50.878;4.392;2022-10-31T04:03:11;20.75;;;7.93;;
23517;SDS011;11935;50.878;4.392;2022-10-31T04:05:38;24.45;;;11.48;;
23517;SDS011;11935;50.878;4.392;2022-10-31T04:08:07;14.20;;;7.22;;
23517;SDS011;11935;50.878;4.392;2022-10-31T04:10:35;12.65;;;7.47;;
23517;SDS011;11935;50.878;4.392;2022-10-31T04:13:07;16.27;;;7.55;;
23517;SDS011;11935;50.878;4.392;2022-10-31T04:15:34;11.20;;;7.07;;
23517;SDS011;11935;50.878;4.392;2022-10-31T04:18:00;15.48;;;7.45;;
23517;SDS011;11935;50.878;4.392;2022-10-31T04:20:34;15.07;;;7.35;;
23517;SDS011;11935;50.878;4.392;2022-10-31T04:23:01;11.70;;;7.70;;
23517;SDS011;11935;50.878;4.392;2022-10-31T04:25:27;15.07;;;8.25;;
23517;SDS011;11935;50.878;4.392;2022-10-31T04:27:53;11.50;;;7.85;;
23517;SDS011;11935;50.878;4.392;2022-10-31T04:30:19;14.75;;;8.68;;
23517;SDS011;11935;50.878;4.392;2022-10-31T04:32:45;17.63;;;11.38;;
23517;SDS011;11935;50.878;4.392;2022-10-31T04:35:11;14.95;;;8.98;;
23517;SDS011;11935;50.878;4.392;2022-10-31T04:37:37;13.60;;;8.95;;
23517;SDS011;11935;50.878;4.392;2022-10-31T04:40:03;15.50;;;9.93;;
23517;SDS011;11935;50.878;4.392;2022-10-31T04:42:30;18.65;;;12.65;;
23517;SDS011;11935;50.878;4.392;2022-10-31T04:44:56;16.95;;;11.88;;
23517;SDS011;11935;50.878;4.392;2022-10-31T04:47:22;17.48;;;11.18;;
23517;SDS011;11935;50.878;4.392;2022-10-31T04:49:48;24.58;;;13.98;;
23517;SDS011;11935;50.878;4.392;2022-10-31T04:52:14;15.55;;;9.38;;
23517;SDS011;11935;50.878;4.392;2022-10-31T04:54:40;12.55;;;8.75;;
23517;SDS011;11935;50.878;4.392;2022-10-31T04:57:06;13.30;;;9.38;;
23517;SDS011;11935;50.878;4.392;2022-10-31T04:59:32;18.08;;;9.40;;
23517;SDS011;11935;50.878;4.392;2022-10-31T05:01:58;26.33;;;13.60;;
23517;SDS011;11935;50.878;4.392;2022-10-31T05:04:24;18.40;;;9.45;;
23517;SDS011;11935;50.878;4.392;2022-10-31T05:06:50;16.88;;;10.07;;
23517;SDS011;11935;50.878;4.392;2022-10-31T05:09:16;18.55;;;10.57;;
23517;SDS011;11935;50.878;4.392;2022-10-31T05:11:42;17.25;;;10.10;;
23517;SDS011;11935;50.878;4.392;2022-10-31T05:14:08;28.63;;;18.33;;
23517;SDS011;11935;50.878;4.392;2022-10-31T05:16:34;22.08;;;14.57;;
23517;SDS011;11935;50.878;4.392;2022-10-31T05:19:00;19.13;;;11.57;;
23517;SDS011;11935;50.878;4.392;2022-10-31T05:21:26;21.33;;;11.55;;
23517;SDS011;11935;50.878;4.392;2022-10-31T05:23:52;22.38;;;11.85;;
23517;SDS011;11935;50.878;4.392;2022-10-31T05:26:18;20.10;;;13.02;;
23517;SDS011;11935;50.878;4.392;2022-10-31T05:28:44;36.88;;;18.67;;
23517;SDS011;11935;50.878;4.392;2022-10-31T05:31:10;22.42;;;13.02;;
23517;SDS011;11935;50.878;4.392;2022-10-31T05:33:36;23.15;;;13.27;;
23517;SDS011;11935;50.878;4.392;2022-10-31T05:36:02;22.15;;;16.00;;
23517;SDS011;11935;50.878;4.392;2022-10-31T05:38:28;30.30;;;16.08;;
23517;SDS011;11935;50.878;4.392;2022-10-31T05:40:55;22.83;;;12.10;;
23517;SDS011;11935;50.878;4.392;2022-10-31T05:43:27;24.42;;;12.43;;
23517;SDS011;11935;50.878;4.392;2022-10-31T05:45:54;24.73;;;13.82;;
23517;SDS011;11935;50.878;4.392;2022-10-31T05:48:20;22.67;;;12.50;;
23517;SDS011;11935;50.878;4.392;2022-10-31T05:50:47;22.80;;;13.30;;
23517;SDS011;11935;50.878;4.392;2022-10-31T05:53:13;19.63;;;11.88;;
23517;SDS011;11935;50.878;4.392;2022-10-31T05:55:39;23.25;;;12.13;;
23517;SDS011;11935;50.878;4.392;2022-10-31T05:58:08;24.48;;;12.60;;
23517;SDS011;11935;50.878;4.392;2022-10-31T06:00:34;18.58;;;12.13;;
23517;SDS011;11935;50.878;4.392;2022-10-31T06:03:00;21.55;;;11.88;;
23517;SDS011;11935;50.878;4.392;2022-10-31T06:05:27;22.70;;;12.75;;
23517;SDS011;11935;50.878;4.392;2022-10-31T06:07:53;18.80;;;12.13;;
23517;SDS011;11935;50.878;4.392;2022-10-31T06:10:19;23.20;;;12.68;;
23517;SDS011;11935;50.878;4.392;2022-10-31T06:12:46;19.95;;;13.98;;
23517;SDS011;11935;50.878;4.392;2022-10-31T06:15:12;27.52;;;13.60;;
23517;SDS011;11935;50.878;4.392;2022-10-31T06:17:38;18.60;;;11.32;;
23517;SDS011;11935;50.878;4.392;2022-10-31T06:20:04;22.05;;;12.13;;
23517;SDS011;11935;50.878;4.392;2022-10-31T06:22:30;18.92;;;12.23;;
23517;SDS011;11935;50.878;4.392;2022-10-31T06:24:56;21.25;;;13.20;;
23517;SDS011;11935;50.878;4.392;2022-10-31T06:27:24;20.67;;;12.68;;
23517;SDS011;11935;50.878;4.392;2022-10-31T06:29:50;20.88;;;12.85;;
23517;SDS011;11935;50.878;4.392;2022-10-31T06:32:16;17.05;;;12.30;;
23517;SDS011;11935;50.878;4.392;2022-10-31T06:34:42;21.13;;;13.18;;
23517;SDS011;11935;50.878;4.392;2022-10-31T06:37:09;19.92;;;12.52;;
23517;SDS011;11935;50.878;4.392;2022-10-31T06:39:36;19.85;;;11.43;;
23517;SDS011;11935;50.878;4.392;2022-10-31T06:42:02;19.58;;;11.65;;
23517;SDS011;11935;50.878;4.392;2022-10-31T06:44:28;16.08;;;11.02;;
23517;SDS011;11935;50.878;4.392;2022-10-31T06:46:54;21.02;;;12.20;;
23517;SDS011;11935;50.878;4.392;2022-10-31T06:49:20;22.35;;;12.05;;
23517;SDS011;11935;50.878;4.392;2022-10-31T06:51:47;17.88;;;11.48;;
23517;SDS011;11935;50.878;4.392;2022-10-31T06:54:13;19.38;;;11.68;;
23517;SDS011;11935;50.878;4.392;2022-10-31T06:56:39;19.50;;;11.27;;
23517;SDS011;11935;50.878;4.392;2022-10-31T06:59:05;22.02;;;11.55;;
23517;SDS011;11935;50.878;4.392;2022-10-31T07:01:31;18.52;;;10.70;;
23517;SDS011;11935;50.878;4.392;2022-10-31T07:03:57;18.02;;;11.63;;
23517;SDS011;11935;50.878;4.392;2022-10-31T07:06:23;16.83;;;11.35;;
23517;SDS011;11935;50.878;4.392;2022-10-31T07:08:49;20.40;;;11.55;;
23517;SDS011;11935;50.878;4.392;2022-10-31T07:11:15;17.73;;;11.00;;
23517;SDS011;11935;50.878;4.392;2022-10-31T07:13:41;18.60;;;11.60;;
23517;SDS011;11935;50.878;4.392;2022-10-31T07:16:08;15.50;;;10.40;;
23517;SDS011;11935;50.878;4.392;2022-10-31T07:18:36;24.27;;;12.02;;
23517;SDS011;11935;50.878;4.392;2022-10-31T07:21:03;20.17;;;11.68;;
23517;SDS011;11935;50.878;4.392;2022-10-31T07:23:29;28.95;;;14.60;;
23517;SDS011;11935;50.878;4.392;2022-10-31T07:25:55;18.95;;;12.50;;
23517;SDS011;11935;50.878;4.392;2022-10-31T07:28:22;23.25;;;11.55;;
23517;SDS011;11935;50.878;4.392;2022-10-31T07:30:51;18.70;;;11.73;;
23517;SDS011;11935;50.878;4.392;2022-10-31T07:33:17;20.13;;;11.68;;
23517;SDS011;11935;50.878;4.392;2022-10-31T07:35:43;21.35;;;13.60;;
23517;SDS011;11935;50.878;4.392;2022-10-31T07:38:10;25.40;;;14.63;;
23517;SDS011;11935;50.878;4.392;2022-10-31T07:40:36;24.20;;;13.38;;
23517;SDS011;11935;50.878;4.392;2022-10-31T07:43:03;22.02;;;11.80;;
23517;SDS011;11935;50.878;4.392;2022-10-31T07:45:29;20.67;;;11.73;;
23517;SDS011;11935;50.878;4.392;2022-10-31T07:47:55;22.45;;;12.15;;
23517;SDS011;11935;50.878;4.392;2022-10-31T07:50:22;20.90;;;11.40;;
23517;SDS011;11935;50.878;4.392;2022-10-31T07:52:48;19.40;;;11.98;;
23517;SDS011;11935;50.878;4.392;2022-10-31T07:55:23;18.55;;;10.38;;
23517;SDS011;11935;50.878;4.392;2022-10-31T07:58:02;19.20;;;11.23;;
23517;SDS011;11935;50.878;4.392;2022-10-31T08:00:30;17.27;;;10.38;;
23517;SDS011;11935;50.878;4.392;2022-10-31T08:03:00;18.35;;;10.52;;
23517;SDS011;11935;50.878;4.392;2022-10-31T08:05:26;18.52;;;10.68;;
23517;SDS011;11935;50.878;4.392;2022-10-31T08:07:52;20.35;;;10.52;;
23517;SDS011;11935;50.878;4.392;2022-10-31T08:10:18;18.02;;;10.38;;
23517;SDS011;11935;50.878;4.392;2022-10-31T08:12:44;16.20;;;10.25;;
23517;SDS011;11935;50.878;4.392;2022-10-31T08:15:11;20.52;;;11.00;;
23517;SDS011;11935;50.878;4.392;2022-10-31T08:17:37;19.98;;;11.40;;
23517;SDS011;11935;50.878;4.392;2022-10-31T08:20:04;17.35;;;11.10;;
23517;SDS011;11935;50.878;4.392;2022-10-31T08:22:30;15.98;;;10.00;;
23517;SDS011;11935;50.878;4.392;2022-10-31T08:24:56;18.13;;;11.27;;
23517;SDS011;11935;50.878;4.392;2022-10-31T08:27:22;16.17;;;10.88;;
23517;SDS011;11935;50.878;4.392;2022-10-31T08:29:48;20.65;;;12.05;;
23517;SDS011;11935;50.878;4.392;2022-10-31T08:32:14;17.55;;;12.00;;
23517;SDS011;11935;50.878;4.392;2022-10-31T08:34:40;19.42;;;11.70;;
23517;SDS011;11935;50.878;4.392;2022-10-31T08:37:06;19.50;;;11.95;;
23517;SDS011;11935;50.878;4.392;2022-10-31T08:39:32;18.15;;;12.45;;
23517;SDS011;11935;50.878;4.392;2022-10-31T08:41:58;17.33;;;10.60;;
23517;SDS011;11935;50.878;4.392;2022-10-31T08:44:24;16.23;;;11.02;;
23517;SDS011;11935;50.878;4.392;2022-10-31T08:46:50;20.63;;;10.90;;
23517;SDS011;11935;50.878;4.392;2022-10-31T08:49:16;20.77;;;11.45;;
23517;SDS011;11935;50.878;4.392;2022-10-31T08:51:42;18.05;;;11.02;;
23517;SDS011;11935;50.878;4.392;2022-10-31T08:54:08;15.73;;;10.45;;
23517;SDS011;11935;50.878;4.392;2022-10-31T08:56:34;14.57;;;9.27;;
23517;SDS011;11935;50.878;4.392;2022-10-31T08:59:00;15.10;;;9.10;;
23517;SDS011;11935;50.878;4.392;2022-10-31T09:01:26;11.18;;;9.50;;
23517;SDS011;11935;50.878;4.392;2022-10-31T09:03:52;13.70;;;9.38;;
23517;SDS011;11935;50.878;4.392;2022-10-31T09:06:18;18.25;;;8.73;;
23517;SDS011;11935;50.878;4.392;2022-10-31T09:08:44;16.45;;;9.77;;
23517;SDS011;11935;50.878;4.392;2022-10-31T09:11:10;17.60;;;10.10;;
23517;SDS011;11935;50.878;4.392;2022-10-31T09:13:36;15.85;;;9.73;;
23517;SDS011;11935;50.878;4.392;2022-10-31T09:16:02;15.68;;;8.80;;
23517;SDS011;11935;50.878;4.392;2022-10-31T09:18:28;13.77;;;9.23;;
23517;SDS011;11935;50.878;4.392;2022-10-31T09:20:56;15.93;;;9.18;;
23517;SDS011;11935;50.878;4.392;2022-10-31T09:25:49;12.63;;;8.65;;
23517;SDS011;11935;50.878;4.392;2022-10-31T09:28:16;11.88;;;7.72;;
23517;SDS011;11935;50.878;4.392;2022-10-31T09:30:42;15.45;;;8.50;;
23517;SDS011;11935;50.878;4.392;2022-10-31T09:33:09;13.35;;;8.77;;
23517;SDS011;11935;50.878;4.392;2022-10-31T09:35:36;16.50;;;10.57;;
23517;SDS011;11935;50.878;4.392;2022-10-31T09:38:06;19.08;;;9.90;;
23517;SDS011;11935;50.878;4.392;2022-10-31T09:40:34;13.30;;;7.90;;
23517;SDS011;11935;50.878;4.392;2022-10-31T09:43:07;12.65;;;8.00;;
23517;SDS011;11935;50.878;4.392;2022-10-31T09:51:04;15.32;;;8.10;;
23517;SDS011;11935;50.878;4.392;2022-10-31T09:53:43;13.23;;;7.22;;
23517;SDS011;11935;50.878;4.392;2022-10-31T09:56:14;16.98;;;8.25;;
23517;SDS011;11935;50.878;4.392;2022-10-31T09:58:51;11.77;;;7.20;;
23517;SDS011;11935;50.878;4.392;2022-10-31T10:01:33;13.40;;;7.57;;
23517;SDS011;11935;50.878;4.392;2022-10-31T10:04:08;14.15;;;7.35;;
23517;SDS011;11935;50.878;4.392;2022-10-31T10:06:44;11.13;;;7.75;;
23517;SDS011;11935;50.878;4.392;2022-10-31T10:09:10;11.60;;;7.35;;
23517;SDS011;11935;50.878;4.392;2022-10-31T10:14:34;15.73;;;6.88;;
23517;SDS011;11935;50.878;4.392;2022-10-31T10:17:17;12.10;;;6.97;;
23517;SDS011;11935;50.878;4.392;2022-10-31T10:19:53;11.10;;;6.95;;
23517;SDS011;11935;50.878;4.392;2022-10-31T10:25:01;11.98;;;7.95;;
23517;SDS011;11935;50.878;4.392;2022-10-31T10:32:57;16.67;;;9.18;;
23517;SDS011;11935;50.878;4.392;2022-10-31T10:35:24;18.45;;;8.32;;
23517;SDS011;11935;50.878;4.392;2022-10-31T10:37:52;14.95;;;8.13;;
23517;SDS011;11935;50.878;4.392;2022-10-31T10:40:25;12.32;;;8.35;;
23517;SDS011;11935;50.878;4.392;2022-10-31T10:42:59;12.45;;;7.97;;
23517;SDS011;11935;50.878;4.392;2022-10-31T10:45:44;17.55;;;9.93;;
23517;SDS011;11935;50.878;4.392;2022-10-31T10:50:57;33.22;;;12.70;;
23517;SDS011;11935;50.878;4.392;2022-10-31T10:53:42;13.73;;;9.60;;
23517;SDS011;11935;50.878;4.392;2022-10-31T10:56:30;13.38;;;9.20;;
23517;SDS011;11935;50.878;4.392;2022-10-31T10:58:59;15.45;;;8.65;;
23517;SDS011;11935;50.878;4.392;2022-10-31T11:01:25;15.50;;;8.35;;
23517;SDS011;11935;50.878;4.392;2022-10-31T11:03:51;14.15;;;8.45;;
23517;SDS011;11935;50.878;4.392;2022-10-31T11:06:18;17.95;;;9.35;;
23517;SDS011;11935;50.878;4.392;2022-10-31T11:08:47;12.32;;;7.95;;
23517;SDS011;11935;50.878;4.392;2022-10-31T11:13:50;13.80;;;8.27;;
23517;SDS011;11935;50.878;4.392;2022-10-31T11:18:52;11.80;;;7.57;;
23517;SDS011;11935;50.878;4.392;2022-10-31T11:21:25;14.07;;;7.82;;
23517;SDS011;11935;50.878;4.392;2022-10-31T11:24:03;15.30;;;8.15;;
23517;SDS011;11935;50.878;4.392;2022-10-31T11:26:29;13.65;;;8.10;;
23517;SDS011;11935;50.878;4.392;2022-10-31T11:28:58;12.52;;;7.65;;
23517;SDS011;11935;50.878;4.392;2022-10-31T11:31:25;12.93;;;7.35;;
23517;SDS011;11935;50.878;4.392;2022-10-31T11:33:55;16.67;;;7.55;;
23517;SDS011;11935;50.878;4.392;2022-10-31T11:36:24;15.32;;;8.02;;
23517;SDS011;11935;50.878;4.392;2022-10-31T11:38:51;12.32;;;6.90;;
23517;SDS011;11935;50.878;4.392;2022-10-31T11:41:19;13.93;;;8.27;;
23517;SDS011;11935;50.878;4.392;2022-10-31T11:43:47;16.00;;;8.23;;
23517;SDS011;11935;50.878;4.392;2022-10-31T11:46:15;12.98;;;7.63;;
23517;SDS011;11935;50.878;4.392;2022-10-31T11:48:46;22.40;;;8.55;;
23517;SDS011;11935;50.878;4.392;2022-10-31T11:51:13;12.75;;;7.97;;
23517;SDS011;11935;50.878;4.392;2022-10-31T11:53:52;15.07;;;10.02;;
23517;SDS011;11935;50.878;4.392;2022-10-31T11:56:19;16.35;;;7.50;;
23517;SDS011;11935;50.878;4.392;2022-10-31T11:58:59;13.02;;;7.65;;
23517;SDS011;11935;50.878;4.392;2022-10-31T12:01:27;18.58;;;7.90;;
23517;SDS011;11935;50.878;4.392;2022-10-31T12:04:07;12.45;;;7.78;;
23517;SDS011;11935;50.878;4.392;2022-10-31T12:06:37;11.75;;;6.85;;
23517;SDS011;11935;50.878;4.392;2022-10-31T12:09:10;10.77;;;6.75;;
23517;SDS011;11935;50.878;4.392;2022-10-31T12:11:57;16.88;;;7.95;;
23517;SDS011;11935;50.878;4.392;2022-10-31T12:14:28;13.38;;;7.03;;
23517;SDS011;11935;50.878;4.392;2022-10-31T12:53:00;14.82;;;4.95;;
23517;SDS011;11935;50.878;4.392;2022-10-31T13:00:49;10.48;;;4.85;;
23517;SDS011;11935;50.878;4.392;2022-10-31T13:06:12;13.00;;;5.22;;
23517;SDS011;11935;50.878;4.392;2022-10-31T13:08:57;11.60;;;4.97;;
23517;SDS011;11935;50.878;4.392;2022-10-31T13:11:26;7.97;;;4.05;;
23517;SDS011;11935;50.878;4.392;2022-10-31T13:16:19;9.40;;;4.80;;
23517;SDS011;11935;50.878;4.392;2022-10-31T13:18:49;11.40;;;4.90;;
23517;SDS011;11935;50.878;4.392;2022-10-31T13:24:13;9.35;;;4.97;;
23517;SDS011;11935;50.878;4.392;2022-10-31T13:26:49;29.08;;;22.17;;
23517;SDS011;11935;50.878;4.392;2022-10-31T13:29:26;7.72;;;4.93;;
23517;SDS011;11935;50.878;4.392;2022-10-31T13:31:53;13.10;;;5.47;;
23517;SDS011;11935;50.878;4.392;2022-10-31T13:34:30;12.20;;;5.00;;
23517;SDS011;11935;50.878;4.392;2022-10-31T13:45:18;14.80;;;5.10;;
23517;SDS011;11935;50.878;4.392;2022-10-31T13:50:32;12.38;;;4.70;;
23517;SDS011;11935;50.878;4.392;2022-10-31T13:55:49;11.25;;;4.50;;
23517;SDS011;11935;50.878;4.392;2022-10-31T13:58:30;11.63;;;4.82;;
23517;SDS011;11935;50.878;4.392;2022-10-31T14:01:02;15.45;;;4.97;;
23517;SDS011;11935;50.878;4.392;2022-10-31T14:03:31;12.60;;;5.07;;
23517;SDS011;11935;50.878;4.392;2022-10-31T14:05:58;11.20;;;4.40;;
23517;SDS011;11935;50.878;4.392;2022-10-31T14:08:24;7.85;;;4.32;;
23517;SDS011;11935;50.878;4.392;2022-10-31T14:10:51;13.00;;;4.90;;
23517;SDS011;11935;50.878;4.392;2022-10-31T14:15:54;7.50;;;4.07;;
23517;SDS011;11935;50.878;4.392;2022-10-31T14:20:50;9.52;;;4.10;;
23517;SDS011;11935;50.878;4.392;2022-10-31T14:23:36;14.35;;;4.55;;
23517;SDS011;11935;50.878;4.392;2022-10-31T14:28:36;12.60;;;4.35;;
23517;SDS011;11935;50.878;4.392;2022-10-31T14:31:01;8.35;;;4.15;;
23517;SDS011;11935;50.878;4.392;2022-10-31T14:33:28;11.90;;;4.13;;
23517;SDS011;11935;50.878;4.392;2022-10-31T14:41:19;11.27;;;4.25;;
23517;SDS011;11935;50.878;4.392;2022-10-31T14:43:51;15.00;;;4.55;;
23517;SDS011;11935;50.878;4.392;2022-10-31T14:51:40;9.50;;;4.45;;
23517;SDS011;11935;50.878;4.392;2022-10-31T14:54:11;12.05;;;4.70;;
23517;SDS011;11935;50.878;4.392;2022-10-31T14:56:41;17.13;;;4.68;;
23517;SDS011;11935;50.878;4.392;2022-10-31T14:59:11;8.90;;;4.20;;
23517;SDS011;11935;50.878;4.392;2022-10-31T15:01:39;12.93;;;4.03;;
23517;SDS011;11935;50.878;4.392;2022-10-31T15:04:07;16.48;;;4.93;;
23517;SDS011;11935;50.878;4.392;2022-10-31T15:06:46;11.95;;;5.15;;
23517;SDS011;11935;50.878;4.392;2022-10-31T15:09:27;13.43;;;6.05;;
23517;SDS011;11935;50.878;4.392;2022-10-31T15:11:53;14.77;;;6.35;;
23517;SDS011;11935;50.878;4.392;2022-10-31T15:14:24;17.67;;;5.43;;
23517;SDS011;11935;50.878;4.392;2022-10-31T15:16:50;10.82;;;5.53;;
23517;SDS011;11935;50.878;4.392;2022-10-31T15:19:20;14.10;;;5.97;;
23517;SDS011;11935;50.878;4.392;2022-10-31T15:21:51;20.45;;;8.00;;
23517;SDS011;11935;50.878;4.392;2022-10-31T15:24:17;16.63;;;6.32;;
23517;SDS011;11935;50.878;4.392;2022-10-31T15:26:45;10.60;;;5.43;;
23517;SDS011;11935;50.878;4.392;2022-10-31T15:29:16;17.83;;;6.35;;
23517;SDS011;11935;50.878;4.392;2022-10-31T15:34:36;15.18;;;6.63;;
23517;SDS011;11935;50.878;4.392;2022-10-31T15:37:04;16.00;;;6.63;;
23517;SDS011;11935;50.878;4.392;2022-10-31T15:39:30;17.02;;;6.90;;
23517;SDS011;11935;50.878;4.392;2022-10-31T15:41:56;16.90;;;6.82;;
23517;SDS011;11935;50.878;4.392;2022-10-31T15:44:36;19.40;;;7.65;;
23517;SDS011;11935;50.878;4.392;2022-10-31T15:47:18;15.25;;;6.82;;
23517;SDS011;11935;50.878;4.392;2022-10-31T15:49:50;17.92;;;7.82;;
23517;SDS011;11935;50.878;4.392;2022-10-31T15:54:44;16.13;;;7.60;;
23517;SDS011;11935;50.878;4.392;2022-10-31T15:57:11;18.65;;;8.32;;
23517;SDS011;11935;50.878;4.392;2022-10-31T15:59:37;22.48;;;10.13;;
23517;SDS011;11935;50.878;4.392;2022-10-31T16:02:10;22.98;;;9.55;;
23517;SDS011;11935;50.878;4.392;2022-10-31T16:04:37;22.10;;;9.68;;
23517;SDS011;11935;50.878;4.392;2022-10-31T16:07:13;20.13;;;8.48;;
23517;SDS011;11935;50.878;4.392;2022-10-31T16:09:50;13.70;;;9.18;;
23517;SDS011;11935;50.878;4.392;2022-10-31T16:12:16;16.88;;;9.10;;
23517;SDS011;11935;50.878;4.392;2022-10-31T16:14:42;17.98;;;10.00;;
23517;SDS011;11935;50.878;4.392;2022-10-31T16:17:12;19.30;;;8.93;;
23517;SDS011;11935;50.878;4.392;2022-10-31T16:19:47;17.35;;;9.75;;
23517;SDS011;11935;50.878;4.392;2022-10-31T16:22:14;26.20;;;13.45;;
23517;SDS011;11935;50.878;4.392;2022-10-31T16:24:45;22.38;;;11.40;;
23517;SDS011;11935;50.878;4.392;2022-10-31T16:27:17;31.37;;;15.53;;
23517;SDS011;11935;50.878;4.392;2022-10-31T16:29:44;29.35;;;17.98;;
23517;SDS011;11935;50.878;4.392;2022-10-31T16:32:57;24.40;;;14.75;;
23517;SDS011;11935;50.878;4.392;2022-10-31T16:35:00;20.02;;;10.40;;
23517;SDS011;11935;50.878;4.392;2022-10-31T16:37:26;20.40;;;10.65;;
23517;SDS011;11935;50.878;4.392;2022-10-31T16:39:52;26.55;;;12.90;;
23517;SDS011;11935;50.878;4.392;2022-10-31T16:42:18;20.27;;;11.32;;
23517;SDS011;11935;50.878;4.392;2022-10-31T16:44:44;27.13;;;19.42;;
23517;SDS011;11935;50.878;4.392;2022-10-31T16:47:13;23.43;;;10.70;;
23517;SDS011;11935;50.878;4.392;2022-10-31T16:52:07;23.88;;;11.45;;
23517;SDS011;11935;50.878;4.392;2022-10-31T16:54:33;24.38;;;11.30;;
23517;SDS011;11935;50.878;4.392;2022-10-31T16:56:59;34.58;;;14.23;;
23517;SDS011;11935;50.878;4.392;2022-10-31T16:59:26;22.00;;;11.27;;
23517;SDS011;11935;50.878;4.392;2022-10-31T17:01:52;21.30;;;10.38;;
23517;SDS011;11935;50.878;4.392;2022-10-31T17:04:18;21.55;;;9.55;;
23517;SDS011;11935;50.878;4.392;2022-10-31T17:06:44;23.58;;;10.32;;